0V4 weather

Public forecast

Using degrees Fahrenheit for public forecast. Weather courtesy of forecast.io.

Current aviation weather report (METAR) for Brookneal/Campbell County Airport

Retrieved 2020/08/13 16:35 UTC (15 minutes ago):

K0V4 131635Z AUTO 02003KT 10SM BKN017 BKN030 OVC070 28/24 A3006 RMK AO1 T02750241

Closest aviation forecast (TAF) to Brookneal/Campbell County Airport

Closest forecast is Lynchburg Regional Preston Glenn Field, 14.2 nm (26.2 km) NW. Retrieved 2020/08/13 12:22 UTC (4 hours ago):

TAF KLYH 131120Z 1312/1412 02003KT 6SM BR OVC002 FM131400 03003KT P6SM BKN015 FM131600 04005KT P6SM BKN035 FM131800 05005KT P6SM SHRA VCTS BKN045CB FM132300 04003KT P6SM OVC035